sensor_id;sensor_type;location;lat;lon;timestamp;P1;durP1;ratioP1;P2;durP2;ratioP2
21519;SDS011;10921;53.614;9.882;2022-12-20T00:00:50;30.27;;;24.20;;
21519;SDS011;10921;53.614;9.882;2022-12-20T00:03:17;29.60;;;21.67;;
21519;SDS011;10921;53.614;9.882;2022-12-20T00:05:45;25.90;;;20.52;;
21519;SDS011;10921;53.614;9.882;2022-12-20T00:08:12;27.40;;;21.73;;
21519;SDS011;10921;53.614;9.882;2022-12-20T00:10:39;28.27;;;22.10;;
21519;SDS011;10921;53.614;9.882;2022-12-20T00:13:08;33.80;;;22.00;;
21519;SDS011;10921;53.614;9.882;2022-12-20T00:15:35;30.35;;;22.02;;
21519;SDS011;10921;53.614;9.882;2022-12-20T00:18:02;29.25;;;21.70;;
21519;SDS011;10921;53.614;9.882;2022-12-20T00:20:29;29.75;;;22.55;;
21519;SDS011;10921;53.614;9.882;2022-12-20T00:22:56;26.50;;;20.98;;
21519;SDS011;10921;53.614;9.882;2022-12-20T00:25:22;29.17;;;21.70;;
21519;SDS011;10921;53.614;9.882;2022-12-20T00:27:49;28.25;;;21.60;;
21519;SDS011;10921;53.614;9.882;2022-12-20T00:30:16;29.85;;;21.52;;
21519;SDS011;10921;53.614;9.882;2022-12-20T00:32:44;25.77;;;20.98;;
21519;SDS011;10921;53.614;9.882;2022-12-20T00:35:11;27.38;;;21.15;;
21519;SDS011;10921;53.614;9.882;2022-12-20T00:37:37;29.88;;;22.85;;
21519;SDS011;10921;53.614;9.882;2022-12-20T00:40:04;25.02;;;20.23;;
21519;SDS011;10921;53.614;9.882;2022-12-20T00:42:31;28.83;;;21.05;;
21519;SDS011;10921;53.614;9.882;2022-12-20T00:44:58;24.38;;;20.45;;
21519;SDS011;10921;53.614;9.882;2022-12-20T00:47:25;28.38;;;21.73;;
21519;SDS011;10921;53.614;9.882;2022-12-20T00:49:51;28.02;;;21.85;;
21519;SDS011;10921;53.614;9.882;2022-12-20T00:52:17;27.88;;;20.63;;
21519;SDS011;10921;53.614;9.882;2022-12-20T00:54:44;27.08;;;20.05;;
21519;SDS011;10921;53.614;9.882;2022-12-20T00:57:11;25.15;;;19.95;;
21519;SDS011;10921;53.614;9.882;2022-12-20T00:59:37;25.48;;;20.55;;
21519;SDS011;10921;53.614;9.882;2022-12-20T01:02:03;26.13;;;20.20;;
21519;SDS011;10921;53.614;9.882;2022-12-20T01:04:30;26.70;;;20.77;;
21519;SDS011;10921;53.614;9.882;2022-12-20T01:06:57;28.67;;;20.70;;
21519;SDS011;10921;53.614;9.882;2022-12-20T01:09:23;26.63;;;20.05;;
21519;SDS011;10921;53.614;9.882;2022-12-20T01:11:50;27.80;;;20.33;;
21519;SDS011;10921;53.614;9.882;2022-12-20T01:14:16;25.33;;;20.73;;
21519;SDS011;10921;53.614;9.882;2022-12-20T01:16:44;29.02;;;20.65;;
21519;SDS011;10921;53.614;9.882;2022-12-20T01:19:12;31.58;;;20.55;;
21519;SDS011;10921;53.614;9.882;2022-12-20T01:21:41;27.55;;;20.90;;
21519;SDS011;10921;53.614;9.882;2022-12-20T01:24:11;27.00;;;21.27;;
21519;SDS011;10921;53.614;9.882;2022-12-20T01:26:39;30.48;;;20.45;;
21519;SDS011;10921;53.614;9.882;2022-12-20T01:29:06;27.45;;;21.90;;
21519;SDS011;10921;53.614;9.882;2022-12-20T01:31:32;29.45;;;21.40;;
21519;SDS011;10921;53.614;9.882;2022-12-20T01:33:59;28.05;;;20.35;;
21519;SDS011;10921;53.614;9.882;2022-12-20T01:36:28;26.75;;;20.02;;
21519;SDS011;10921;53.614;9.882;2022-12-20T01:39:01;28.13;;;21.70;;
21519;SDS011;10921;53.614;9.882;2022-12-20T01:41:34;26.95;;;20.58;;
21519;SDS011;10921;53.614;9.882;2022-12-20T01:44:05;23.42;;;19.15;;
21519;SDS011;10921;53.614;9.882;2022-12-20T01:46:53;27.58;;;21.65;;
21519;SDS011;10921;53.614;9.882;2022-12-20T01:49:23;23.70;;;19.52;;
21519;SDS011;10921;53.614;9.882;2022-12-20T01:52:25;28.05;;;20.80;;
21519;SDS011;10921;53.614;9.882;2022-12-20T01:54:54;25.08;;;20.33;;
21519;SDS011;10921;53.614;9.882;2022-12-20T01:57:30;27.17;;;18.92;;
21519;SDS011;10921;53.614;9.882;2022-12-20T02:00:05;24.38;;;19.73;;
21519;SDS011;10921;53.614;9.882;2022-12-20T02:02:33;25.42;;;20.00;;
21519;SDS011;10921;53.614;9.882;2022-12-20T02:05:01;24.98;;;18.73;;
21519;SDS011;10921;53.614;9.882;2022-12-20T02:07:28;25.25;;;19.67;;
21519;SDS011;10921;53.614;9.882;2022-12-20T02:09:57;24.67;;;19.83;;
21519;SDS011;10921;53.614;9.882;2022-12-20T02:12:28;24.63;;;19.65;;
21519;SDS011;10921;53.614;9.882;2022-12-20T02:21:00;22.80;;;18.88;;
21519;SDS011;10921;53.614;9.882;2022-12-20T02:29:32;21.30;;;18.77;;
21519;SDS011;10921;53.614;9.882;2022-12-20T02:34:44;24.98;;;19.55;;
21519;SDS011;10921;53.614;9.882;2022-12-20T02:37:11;21.33;;;19.05;;
21519;SDS011;10921;53.614;9.882;2022-12-20T02:39:39;23.05;;;18.23;;
21519;SDS011;10921;53.614;9.882;2022-12-20T02:42:06;24.17;;;19.05;;
21519;SDS011;10921;53.614;9.882;2022-12-20T02:44:36;21.92;;;18.70;;
21519;SDS011;10921;53.614;9.882;2022-12-20T02:47:26;22.10;;;18.38;;
21519;SDS011;10921;53.614;9.882;2022-12-20T02:49:57;21.20;;;18.52;;
21519;SDS011;10921;53.614;9.882;2022-12-20T02:52:25;27.05;;;19.90;;
21519;SDS011;10921;53.614;9.882;2022-12-20T02:54:56;20.38;;;17.90;;
21519;SDS011;10921;53.614;9.882;2022-12-20T02:57:28;21.10;;;17.98;;
21519;SDS011;10921;53.614;9.882;2022-12-20T03:00:04;23.33;;;19.33;;
21519;SDS011;10921;53.614;9.882;2022-12-20T03:02:35;25.10;;;18.95;;
21519;SDS011;10921;53.614;9.882;2022-12-20T03:05:25;23.25;;;17.73;;
21519;SDS011;10921;53.614;9.882;2022-12-20T03:07:53;24.58;;;18.98;;
21519;SDS011;10921;53.614;9.882;2022-12-20T03:10:20;27.75;;;17.67;;
21519;SDS011;10921;53.614;9.882;2022-12-20T03:12:47;24.83;;;18.95;;
21519;SDS011;10921;53.614;9.882;2022-12-20T03:15:14;22.02;;;18.27;;
21519;SDS011;10921;53.614;9.882;2022-12-20T03:17:40;19.67;;;17.33;;
21519;SDS011;10921;53.614;9.882;2022-12-20T03:20:07;21.85;;;18.17;;
21519;SDS011;10921;53.614;9.882;2022-12-20T03:22:36;24.88;;;18.00;;
21519;SDS011;10921;53.614;9.882;2022-12-20T03:25:03;24.55;;;18.38;;
21519;SDS011;10921;53.614;9.882;2022-12-20T03:27:30;20.02;;;17.05;;
21519;SDS011;10921;53.614;9.882;2022-12-20T03:29:57;21.92;;;17.52;;
21519;SDS011;10921;53.614;9.882;2022-12-20T03:32:23;20.83;;;17.25;;
21519;SDS011;10921;53.614;9.882;2022-12-20T03:34:50;25.80;;;18.38;;
21519;SDS011;10921;53.614;9.882;2022-12-20T03:37:16;20.02;;;17.85;;
21519;SDS011;10921;53.614;9.882;2022-12-20T03:39:43;21.63;;;17.00;;
21519;SDS011;10921;53.614;9.882;2022-12-20T03:42:09;22.80;;;17.88;;
21519;SDS011;10921;53.614;9.882;2022-12-20T03:44:36;24.15;;;17.98;;
21519;SDS011;10921;53.614;9.882;2022-12-20T03:47:02;19.83;;;17.15;;
21519;SDS011;10921;53.614;9.882;2022-12-20T03:49:29;21.38;;;16.95;;
21519;SDS011;10921;53.614;9.882;2022-12-20T03:51:55;19.60;;;17.15;;
21519;SDS011;10921;53.614;9.882;2022-12-20T03:54:22;19.17;;;16.50;;
21519;SDS011;10921;53.614;9.882;2022-12-20T03:56:48;19.08;;;16.30;;
21519;SDS011;10921;53.614;9.882;2022-12-20T03:59:15;24.42;;;17.48;;
21519;SDS011;10921;53.614;9.882;2022-12-20T04:01:41;22.23;;;17.35;;
21519;SDS011;10921;53.614;9.882;2022-12-20T04:04:09;19.25;;;17.13;;
21519;SDS011;10921;53.614;9.882;2022-12-20T04:06:37;21.70;;;17.92;;
21519;SDS011;10921;53.614;9.882;2022-12-20T04:09:04;19.58;;;17.45;;
21519;SDS011;10921;53.614;9.882;2022-12-20T04:11:31;23.90;;;16.95;;
21519;SDS011;10921;53.614;9.882;2022-12-20T04:13:57;19.90;;;16.85;;
21519;SDS011;10921;53.614;9.882;2022-12-20T04:16:24;18.00;;;15.90;;
21519;SDS011;10921;53.614;9.882;2022-12-20T04:18:54;20.15;;;17.35;;
21519;SDS011;10921;53.614;9.882;2022-12-20T04:21:21;21.17;;;17.02;;
21519;SDS011;10921;53.614;9.882;2022-12-20T04:23:49;22.20;;;17.83;;
21519;SDS011;10921;53.614;9.882;2022-12-20T04:26:16;20.10;;;16.08;;
21519;SDS011;10921;53.614;9.882;2022-12-20T04:28:43;35.17;;;17.85;;
21519;SDS011;10921;53.614;9.882;2022-12-20T04:31:09;17.98;;;16.15;;
21519;SDS011;10921;53.614;9.882;2022-12-20T04:33:36;22.80;;;17.42;;
21519;SDS011;10921;53.614;9.882;2022-12-20T04:36:03;20.50;;;16.55;;
21519;SDS011;10921;53.614;9.882;2022-12-20T04:38:30;26.80;;;17.73;;
21519;SDS011;10921;53.614;9.882;2022-12-20T04:40:57;20.63;;;17.35;;
21519;SDS011;10921;53.614;9.882;2022-12-20T04:43:23;18.70;;;16.45;;
21519;SDS011;10921;53.614;9.882;2022-12-20T04:45:50;21.00;;;16.95;;
21519;SDS011;10921;53.614;9.882;2022-12-20T04:48:18;23.92;;;17.08;;
21519;SDS011;10921;53.614;9.882;2022-12-20T04:51:05;20.00;;;16.48;;
21519;SDS011;10921;53.614;9.882;2022-12-20T04:53:31;21.70;;;18.52;;
21519;SDS011;10921;53.614;9.882;2022-12-20T04:56:23;22.77;;;19.00;;
21519;SDS011;10921;53.614;9.882;2022-12-20T04:58:54;22.70;;;19.23;;
21519;SDS011;10921;53.614;9.882;2022-12-20T05:01:22;23.60;;;21.13;;
21519;SDS011;10921;53.614;9.882;2022-12-20T05:03:49;26.80;;;21.25;;
21519;SDS011;10921;53.614;9.882;2022-12-20T05:06:16;26.38;;;22.10;;
21519;SDS011;10921;53.614;9.882;2022-12-20T05:08:42;27.08;;;23.05;;
21519;SDS011;10921;53.614;9.882;2022-12-20T05:11:09;27.92;;;24.38;;
21519;SDS011;10921;53.614;9.882;2022-12-20T05:13:36;26.88;;;24.08;;
21519;SDS011;10921;53.614;9.882;2022-12-20T05:16:02;30.15;;;24.23;;
21519;SDS011;10921;53.614;9.882;2022-12-20T05:18:29;27.50;;;24.75;;
21519;SDS011;10921;53.614;9.882;2022-12-20T05:20:56;32.33;;;25.05;;
21519;SDS011;10921;53.614;9.882;2022-12-20T05:23:43;27.75;;;24.85;;
21519;SDS011;10921;53.614;9.882;2022-12-20T05:26:29;32.70;;;25.90;;
21519;SDS011;10921;53.614;9.882;2022-12-20T05:28:58;28.27;;;25.15;;
21519;SDS011;10921;53.614;9.882;2022-12-20T05:31:24;29.70;;;25.98;;
21519;SDS011;10921;53.614;9.882;2022-12-20T05:33:51;27.77;;;24.88;;
21519;SDS011;10921;53.614;9.882;2022-12-20T05:36:17;28.00;;;25.10;;
21519;SDS011;10921;53.614;9.882;2022-12-20T05:38:44;28.85;;;25.95;;
21519;SDS011;10921;53.614;9.882;2022-12-20T05:41:10;28.45;;;25.13;;
21519;SDS011;10921;53.614;9.882;2022-12-20T05:43:37;30.30;;;27.10;;
21519;SDS011;10921;53.614;9.882;2022-12-20T05:46:03;31.25;;;27.88;;
21519;SDS011;10921;53.614;9.882;2022-12-20T05:48:30;30.15;;;27.15;;
21519;SDS011;10921;53.614;9.882;2022-12-20T05:50:57;30.95;;;26.75;;
21519;SDS011;10921;53.614;9.882;2022-12-20T05:53:24;31.20;;;27.85;;
21519;SDS011;10921;53.614;9.882;2022-12-20T05:55:52;32.25;;;27.10;;
21519;SDS011;10921;53.614;9.882;2022-12-20T05:58:19;31.27;;;27.90;;
21519;SDS011;10921;53.614;9.882;2022-12-20T06:00:46;29.90;;;26.88;;
21519;SDS011;10921;53.614;9.882;2022-12-20T06:03:13;31.02;;;27.98;;
21519;SDS011;10921;53.614;9.882;2022-12-20T06:05:43;30.40;;;27.40;;
21519;SDS011;10921;53.614;9.882;2022-12-20T06:08:10;31.85;;;28.52;;
21519;SDS011;10921;53.614;9.882;2022-12-20T06:10:38;30.88;;;27.83;;
21519;SDS011;10921;53.614;9.882;2022-12-20T06:13:06;32.08;;;28.23;;
21519;SDS011;10921;53.614;9.882;2022-12-20T06:15:34;31.17;;;27.92;;
21519;SDS011;10921;53.614;9.882;2022-12-20T06:18:01;29.63;;;26.67;;
21519;SDS011;10921;53.614;9.882;2022-12-20T06:20:28;31.23;;;26.70;;
21519;SDS011;10921;53.614;9.882;2022-12-20T06:22:54;28.95;;;25.98;;
21519;SDS011;10921;53.614;9.882;2022-12-20T06:25:20;30.85;;;27.83;;
21519;SDS011;10921;53.614;9.882;2022-12-20T06:27:48;31.67;;;26.65;;
21519;SDS011;10921;53.614;9.882;2022-12-20T06:30:14;34.47;;;27.40;;
21519;SDS011;10921;53.614;9.882;2022-12-20T06:32:42;31.05;;;27.73;;
21519;SDS011;10921;53.614;9.882;2022-12-20T06:35:08;29.80;;;26.70;;
21519;SDS011;10921;53.614;9.882;2022-12-20T06:37:35;33.80;;;27.58;;
21519;SDS011;10921;53.614;9.882;2022-12-20T06:40:04;29.45;;;26.10;;
21519;SDS011;10921;53.614;9.882;2022-12-20T06:42:31;33.28;;;27.20;;
21519;SDS011;10921;53.614;9.882;2022-12-20T06:44:57;30.45;;;26.48;;
21519;SDS011;10921;53.614;9.882;2022-12-20T06:47:24;28.27;;;25.30;;
21519;SDS011;10921;53.614;9.882;2022-12-20T06:49:50;28.88;;;25.77;;
21519;SDS011;10921;53.614;9.882;2022-12-20T06:52:16;28.13;;;24.80;;
21519;SDS011;10921;53.614;9.882;2022-12-20T06:54:43;23.98;;;21.70;;
21519;SDS011;10921;53.614;9.882;2022-12-20T06:57:09;26.10;;;23.02;;
21519;SDS011;10921;53.614;9.882;2022-12-20T06:59:36;26.08;;;23.38;;
21519;SDS011;10921;53.614;9.882;2022-12-20T07:02:02;25.02;;;22.40;;
21519;SDS011;10921;53.614;9.882;2022-12-20T07:04:30;24.08;;;21.23;;
21519;SDS011;10921;53.614;9.882;2022-12-20T07:06:57;24.55;;;21.83;;
21519;SDS011;10921;53.614;9.882;2022-12-20T07:09:23;26.75;;;22.10;;
21519;SDS011;10921;53.614;9.882;2022-12-20T07:11:49;26.35;;;22.70;;
21519;SDS011;10921;53.614;9.882;2022-12-20T07:14:17;24.52;;;22.08;;
21519;SDS011;10921;53.614;9.882;2022-12-20T07:16:43;25.92;;;22.50;;
21519;SDS011;10921;53.614;9.882;2022-12-20T07:19:10;25.98;;;22.35;;
21519;SDS011;10921;53.614;9.882;2022-12-20T07:21:38;26.45;;;22.33;;
21519;SDS011;10921;53.614;9.882;2022-12-20T07:24:04;25.88;;;21.77;;
21519;SDS011;10921;53.614;9.882;2022-12-20T07:26:31;26.45;;;22.58;;
21519;SDS011;10921;53.614;9.882;2022-12-20T07:28:58;25.13;;;22.42;;
21519;SDS011;10921;53.614;9.882;2022-12-20T07:31:24;24.95;;;22.25;;
21519;SDS011;10921;53.614;9.882;2022-12-20T07:33:51;24.23;;;21.60;;
21519;SDS011;10921;53.614;9.882;2022-12-20T07:36:18;25.50;;;22.27;;
21519;SDS011;10921;53.614;9.882;2022-12-20T07:38:44;25.15;;;20.55;;
21519;SDS011;10921;53.614;9.882;2022-12-20T07:41:12;25.70;;;22.80;;
21519;SDS011;10921;53.614;9.882;2022-12-20T07:43:41;24.77;;;21.88;;
21519;SDS011;10921;53.614;9.882;2022-12-20T07:46:08;24.60;;;21.70;;
21519;SDS011;10921;53.614;9.882;2022-12-20T07:48:38;27.50;;;21.52;;
21519;SDS011;10921;53.614;9.882;2022-12-20T07:51:08;25.02;;;21.38;;
21519;SDS011;10921;53.614;9.882;2022-12-20T07:53:39;25.23;;;22.17;;
21519;SDS011;10921;53.614;9.882;2022-12-20T07:56:11;24.00;;;21.45;;
21519;SDS011;10921;53.614;9.882;2022-12-20T07:58:40;25.02;;;21.17;;
21519;SDS011;10921;53.614;9.882;2022-12-20T08:01:07;24.65;;;21.45;;
21519;SDS011;10921;53.614;9.882;2022-12-20T08:03:37;25.58;;;21.10;;
21519;SDS011;10921;53.614;9.882;2022-12-20T08:06:13;22.48;;;19.95;;
21519;SDS011;10921;53.614;9.882;2022-12-20T08:08:42;24.55;;;21.15;;
21519;SDS011;10921;53.614;9.882;2022-12-20T08:11:13;22.35;;;19.20;;
21519;SDS011;10921;53.614;9.882;2022-12-20T08:13:40;26.35;;;20.40;;
21519;SDS011;10921;53.614;9.882;2022-12-20T08:16:12;28.63;;;20.98;;
21519;SDS011;10921;53.614;9.882;2022-12-20T08:18:39;25.70;;;20.38;;
21519;SDS011;10921;53.614;9.882;2022-12-20T08:21:05;26.38;;;19.55;;
21519;SDS011;10921;53.614;9.882;2022-12-20T08:23:32;23.08;;;19.00;;
21519;SDS011;10921;53.614;9.882;2022-12-20T08:25:59;25.63;;;19.65;;
21519;SDS011;10921;53.614;9.882;2022-12-20T08:28:28;24.70;;;19.92;;
21519;SDS011;10921;53.614;9.882;2022-12-20T08:31:01;20.15;;;18.05;;
21519;SDS011;10921;53.614;9.882;2022-12-20T08:33:28;25.13;;;18.85;;
21519;SDS011;10921;53.614;9.882;2022-12-20T08:35:56;25.25;;;19.48;;
21519;SDS011;10921;53.614;9.882;2022-12-20T08:38:24;23.70;;;18.35;;
21519;SDS011;10921;53.614;9.882;2022-12-20T08:40:52;21.80;;;18.00;;
21519;SDS011;10921;53.614;9.882;2022-12-20T08:43:18;23.58;;;18.13;;
21519;SDS011;10921;53.614;9.882;2022-12-20T08:45:44;23.95;;;18.92;;
21519;SDS011;10921;53.614;9.882;2022-12-20T08:48:17;20.65;;;17.40;;
21519;SDS011;10921;53.614;9.882;2022-12-20T08:50:44;20.55;;;18.30;;
21519;SDS011;10921;53.614;9.882;2022-12-20T08:53:10;22.58;;;18.30;;
21519;SDS011;10921;53.614;9.882;2022-12-20T08:55:37;22.70;;;17.52;;
21519;SDS011;10921;53.614;9.882;2022-12-20T08:58:03;20.35;;;17.42;;
21519;SDS011;10921;53.614;9.882;2022-12-20T09:00:29;26.15;;;17.77;;
21519;SDS011;10921;53.614;9.882;2022-12-20T09:02:56;22.27;;;17.60;;
21519;SDS011;10921;53.614;9.882;2022-12-20T09:05:23;23.35;;;18.08;;
21519;SDS011;10921;53.614;9.882;2022-12-20T09:07:49;20.38;;;17.65;;
21519;SDS011;10921;53.614;9.882;2022-12-20T09:10:15;18.77;;;16.80;;
21519;SDS011;10921;53.614;9.882;2022-12-20T09:12:42;19.02;;;16.98;;
21519;SDS011;10921;53.614;9.882;2022-12-20T09:15:08;21.60;;;18.48;;
21519;SDS011;10921;53.614;9.882;2022-12-20T09:17:35;22.38;;;18.27;;
21519;SDS011;10921;53.614;9.882;2022-12-20T09:20:02;20.90;;;18.13;;
21519;SDS011;10921;53.614;9.882;2022-12-20T09:22:30;20.80;;;17.98;;
21519;SDS011;10921;53.614;9.882;2022-12-20T09:24:56;20.02;;;17.15;;
21519;SDS011;10921;53.614;9.882;2022-12-20T09:27:23;22.17;;;17.60;;
21519;SDS011;10921;53.614;9.882;2022-12-20T09:29:49;19.42;;;17.10;;
21519;SDS011;10921;53.614;9.882;2022-12-20T09:32:16;21.88;;;16.90;;
21519;SDS011;10921;53.614;9.882;2022-12-20T09:34:42;20.30;;;17.05;;
21519;SDS011;10921;53.614;9.882;2022-12-20T09:37:09;19.48;;;17.27;;
21519;SDS011;10921;53.614;9.882;2022-12-20T09:39:36;21.23;;;17.27;;
21519;SDS011;10921;53.614;9.882;2022-12-20T09:42:05;21.88;;;17.58;;
21519;SDS011;10921;53.614;9.882;2022-12-20T09:47:13;21.20;;;17.60;;
21519;SDS011;10921;53.614;9.882;2022-12-20T09:49:44;21.38;;;18.15;;
21519;SDS011;10921;53.614;9.882;2022-12-20T09:54:45;25.00;;;18.90;;
21519;SDS011;10921;53.614;9.882;2022-12-20T10:00:11;29.50;;;19.17;;
21519;SDS011;10921;53.614;9.882;2022-12-20T10:02:40;25.40;;;20.40;;
21519;SDS011;10921;53.614;9.882;2022-12-20T10:05:30;25.63;;;21.27;;
21519;SDS011;10921;53.614;9.882;2022-12-20T10:10:43;25.98;;;23.17;;
21519;SDS011;10921;53.614;9.882;2022-12-20T10:16:18;25.85;;;23.05;;
21519;SDS011;10921;53.614;9.882;2022-12-20T10:24:19;28.85;;;22.40;;
21519;SDS011;10921;53.614;9.882;2022-12-20T10:26:52;25.17;;;21.33;;
21519;SDS011;10921;53.614;9.882;2022-12-20T10:29:19;24.23;;;21.63;;
21519;SDS011;10921;53.614;9.882;2022-12-20T10:31:53;23.10;;;19.50;;
21519;SDS011;10921;53.614;9.882;2022-12-20T10:34:25;24.52;;;19.88;;
21519;SDS011;10921;53.614;9.882;2022-12-20T10:37:12;28.40;;;20.65;;
21519;SDS011;10921;53.614;9.882;2022-12-20T10:39:41;22.70;;;19.73;;
21519;SDS011;10921;53.614;9.882;2022-12-20T10:42:26;24.88;;;19.52;;
21519;SDS011;10921;53.614;9.882;2022-12-20T10:45:01;25.05;;;18.95;;
21519;SDS011;10921;53.614;9.882;2022-12-20T10:47:33;27.13;;;19.15;;
21519;SDS011;10921;53.614;9.882;2022-12-20T10:50:07;23.38;;;18.42;;
21519;SDS011;10921;53.614;9.882;2022-12-20T10:55:34;20.17;;;17.77;;
21519;SDS011;10921;53.614;9.882;2022-12-20T10:58:04;20.13;;;17.00;;
21519;SDS011;10921;53.614;9.882;2022-12-20T11:00:38;18.75;;;16.42;;
21519;SDS011;10921;53.614;9.882;2022-12-20T11:03:14;19.13;;;16.20;;
21519;SDS011;10921;53.614;9.882;2022-12-20T11:05:57;19.23;;;17.00;;
21519;SDS011;10921;53.614;9.882;2022-12-20T11:08:30;25.08;;;17.48;;
21519;SDS011;10921;53.614;9.882;2022-12-20T11:13:38;19.42;;;16.92;;
21519;SDS011;10921;53.614;9.882;2022-12-20T11:16:19;26.77;;;18.48;;
21519;SDS011;10921;53.614;9.882;2022-12-20T11:35:06;21.15;;;16.77;;
21519;SDS011;10921;53.614;9.882;2022-12-20T11:37:45;21.88;;;16.40;;
21519;SDS011;10921;53.614;9.882;2022-12-20T11:43:09;22.67;;;16.02;;
21519;SDS011;10921;53.614;9.882;2022-12-20T11:51:03;19.85;;;17.00;;
21519;SDS011;10921;53.614;9.882;2022-12-20T11:53:49;17.73;;;15.82;;
21519;SDS011;10921;53.614;9.882;2022-12-20T11:58:56;19.37;;;16.30;;
21519;SDS011;10921;53.614;9.882;2022-12-20T12:01:37;25.05;;;17.50;;
21519;SDS011;10921;53.614;9.882;2022-12-20T12:04:17;24.58;;;16.25;;
21519;SDS011;10921;53.614;9.882;2022-12-20T12:06:52;21.30;;;17.20;;
21519;SDS011;10921;53.614;9.882;2022-12-20T12:09:31;27.92;;;18.40;;
21519;SDS011;10921;53.614;9.882;2022-12-20T12:12:09;30.23;;;19.40;;
21519;SDS011;10921;53.614;9.882;2022-12-20T12:17:44;23.77;;;17.85;;
21519;SDS011;10921;53.614;9.882;2022-12-20T12:22:52;22.52;;;18.85;;
21519;SDS011;10921;53.614;9.882;2022-12-20T12:25:22;26.50;;;20.95;;
21519;SDS011;10921;53.614;9.882;2022-12-20T12:27:49;22.35;;;19.95;;
21519;SDS011;10921;53.614;9.882;2022-12-20T12:30:16;26.95;;;21.30;;
21519;SDS011;10921;53.614;9.882;2022-12-20T12:35:39;26.15;;;22.27;;
21519;SDS011;10921;53.614;9.882;2022-12-20T12:46:13;28.35;;;25.35;;
21519;SDS011;10921;53.614;9.882;2022-12-20T12:49:03;35.53;;;30.45;;
21519;SDS011;10921;53.614;9.882;2022-12-20T12:51:34;34.25;;;30.35;;
21519;SDS011;10921;53.614;9.882;2022-12-20T12:54:25;33.85;;;30.42;;
21519;SDS011;10921;53.614;9.882;2022-12-20T12:57:14;33.20;;;29.33;;
21519;SDS011;10921;53.614;9.882;2022-12-20T12:59:45;32.85;;;29.70;;
21519;SDS011;10921;53.614;9.882;2022-12-20T13:17:50;31.52;;;28.30;;
21519;SDS011;10921;53.614;9.882;2022-12-20T13:20:28;35.80;;;28.85;;
21519;SDS011;10921;53.614;9.882;2022-12-20T13:25:35;30.92;;;27.65;;
21519;SDS011;10921;53.614;9.882;2022-12-20T13:33:37;32.17;;;28.85;;
21519;SDS011;10921;53.614;9.882;2022-12-20T13:41:38;31.73;;;28.60;;
21519;SDS011;10921;53.614;9.882;2022-12-20T13:46:47;33.92;;;29.40;;
21519;SDS011;10921;53.614;9.882;2022-12-20T13:49:21;35.70;;;29.70;;
21519;SDS011;10921;53.614;9.882;2022-12-20T13:51:49;32.53;;;29.30;;
21519;SDS011;10921;53.614;9.882;2022-12-20T13:54:42;33.78;;;30.20;;
21519;SDS011;10921;53.614;9.882;2022-12-20T13:57:13;32.30;;;28.88;;
21519;SDS011;10921;53.614;9.882;2022-12-20T13:59:45;32.03;;;28.65;;
21519;SDS011;10921;53.614;9.882;2022-12-20T14:02:20;31.60;;;28.45;;
21519;SDS011;10921;53.614;9.882;2022-12-20T14:04:58;32.90;;;29.35;;
21519;SDS011;10921;53.614;9.882;2022-12-20T14:07:27;32.75;;;29.35;;
21519;SDS011;10921;53.614;9.882;2022-12-20T14:09:58;34.28;;;29.52;;
21519;SDS011;10921;53.614;9.882;2022-12-20T14:12:27;33.07;;;29.73;;
21519;SDS011;10921;53.614;9.882;2022-12-20T14:15:02;31.42;;;28.27;;
21519;SDS011;10921;53.614;9.882;2022-12-20T14:17:45;35.13;;;30.08;;
21519;SDS011;10921;53.614;9.882;2022-12-20T14:25:16;31.90;;;28.63;;
21519;SDS011;10921;53.614;9.882;2022-12-20T14:27:53;31.98;;;28.67;;
21519;SDS011;10921;53.614;9.882;2022-12-20T14:30:28;33.08;;;29.30;;
21519;SDS011;10921;53.614;9.882;2022-12-20T14:32:57;32.88;;;29.42;;
21519;SDS011;10921;53.614;9.882;2022-12-20T14:35:23;31.60;;;28.02;;
21519;SDS011;10921;53.614;9.882;2022-12-20T14:37:54;31.88;;;28.73;;
21519;SDS011;10921;53.614;9.882;2022-12-20T14:40:25;34.33;;;29.02;;
21519;SDS011;10921;53.614;9.882;2022-12-20T14:42:52;32.90;;;29.48;;
21519;SDS011;10921;53.614;9.882;2022-12-20T14:45:21;33.53;;;29.98;;
21519;SDS011;10921;53.614;9.882;2022-12-20T14:47:59;32.55;;;29.13;;
21519;SDS011;10921;53.614;9.882;2022-12-20T14:50:37;32.80;;;29.50;;
21519;SDS011;10921;53.614;9.882;2022-12-20T14:53:17;32.00;;;28.37;;
21519;SDS011;10921;53.614;9.882;2022-12-20T14:55:47;32.40;;;29.08;;
21519;SDS011;10921;53.614;9.882;2022-12-20T14:58:25;32.92;;;29.33;;
21519;SDS011;10921;53.614;9.882;2022-12-20T15:00:55;35.88;;;30.27;;
21519;SDS011;10921;53.614;9.882;2022-12-20T15:03:23;32.30;;;28.97;;
21519;SDS011;10921;53.614;9.882;2022-12-20T15:05:54;32.38;;;29.25;;
21519;SDS011;10921;53.614;9.882;2022-12-20T15:08:29;34.38;;;30.67;;
21519;SDS011;10921;53.614;9.882;2022-12-20T15:11:00;34.22;;;30.50;;
21519;SDS011;10921;53.614;9.882;2022-12-20T15:13:33;32.83;;;29.63;;
21519;SDS011;10921;53.614;9.882;2022-12-20T15:16:04;33.67;;;30.33;;
21519;SDS011;10921;53.614;9.882;2022-12-20T15:18:38;32.42;;;29.23;;
21519;SDS011;10921;53.614;9.882;2022-12-20T15:21:06;33.70;;;30.23;;
21519;SDS011;10921;53.614;9.882;2022-12-20T15:23:45;33.58;;;30.05;;
21519;SDS011;10921;53.614;9.882;2022-12-20T15:26:14;34.42;;;30.70;;
21519;SDS011;10921;53.614;9.882;2022-12-20T15:28:42;34.40;;;31.00;;
21519;SDS011;10921;53.614;9.882;2022-12-20T15:31:09;38.35;;;33.33;;
21519;SDS011;10921;53.614;9.882;2022-12-20T15:33:40;48.25;;;39.10;;
21519;SDS011;10921;53.614;9.882;2022-12-20T15:36:12;79.88;;;51.95;;
21519;SDS011;10921;53.614;9.882;2022-12-20T15:38:42;60.17;;;43.88;;
21519;SDS011;10921;53.614;9.882;2022-12-20T15:41:30;56.42;;;39.88;;
21519;SDS011;10921;53.614;9.882;2022-12-20T15:43:59;173.48;;;93.38;;
21519;SDS011;10921;53.614;9.882;2022-12-20T15:46:30;181.98;;;101.18;;
21519;SDS011;10921;53.614;9.882;2022-12-20T15:48:57;59.72;;;43.08;;
21519;SDS011;10921;53.614;9.882;2022-12-20T15:53:56;40.25;;;35.65;;
21519;SDS011;10921;53.614;9.882;2022-12-20T15:56:23;35.03;;;31.30;;
21519;SDS011;10921;53.614;9.882;2022-12-20T15:58:50;34.88;;;31.38;;
21519;SDS011;10921;53.614;9.882;2022-12-20T16:01:25;34.60;;;30.05;;
21519;SDS011;10921;53.614;9.882;2022-12-20T16:04:01;34.55;;;30.95;;
21519;SDS011;10921;53.614;9.882;2022-12-20T16:06:28;34.53;;;29.65;;
21519;SDS011;10921;53.614;9.882;2022-12-20T16:08:54;33.20;;;29.67;;
21519;SDS011;10921;53.614;9.882;2022-12-20T16:11:27;33.65;;;30.15;;
21519;SDS011;10921;53.614;9.882;2022-12-20T16:13:56;35.50;;;31.70;;
21519;SDS011;10921;53.614;9.882;2022-12-20T16:16:28;32.55;;;29.30;;
21519;SDS011;10921;53.614;9.882;2022-12-20T16:19:00;33.28;;;29.70;;
21519;SDS011;10921;53.614;9.882;2022-12-20T16:21:33;32.03;;;28.83;;
21519;SDS011;10921;53.614;9.882;2022-12-20T16:24:01;31.23;;;27.73;;
21519;SDS011;10921;53.614;9.882;2022-12-20T16:26:28;31.15;;;27.85;;
21519;SDS011;10921;53.614;9.882;2022-12-20T16:28:55;32.47;;;29.15;;
21519;SDS011;10921;53.614;9.882;2022-12-20T16:31:28;30.55;;;27.35;;
21519;SDS011;10921;53.614;9.882;2022-12-20T16:33:57;29.38;;;26.25;;
21519;SDS011;10921;53.614;9.882;2022-12-20T16:36:25;35.40;;;27.30;;
21519;SDS011;10921;53.614;9.882;2022-12-20T16:38:52;30.42;;;26.17;;